<?xml version="1.0" encoding="UTF-8" standalone="no" ?>
<gpx xmlns="http://www.topografix.com/GPX/1/1" xmlns:xsi="http://www.w3.org/2001/XMLSchema-instance" xsi:schemaLocation="http://www.topografix.com/GPX/1/1 http://www.topografix.com/GPX/1/1/gpx.xsd" version="1.1" creator="VisuGPX - https://www.visugpx.com">
  <metadata>
    <name>Allègre les Fumades - Suzon</name>
    <desc><![CDATA[Belle randonnée avec un détour à ne pas manquer le gouffre sur le Séguissou à Suzon.]]></desc>
  </metadata>
  <trk>
    <name><![CDATA[Les Aiguières-13091058]]></name>
    <desc><![CDATA[Total: 13.6km]]></desc>
    <extensions>
      <line xmlns="http://www.topografix.com/GPX/gpx_style/0/2">
        <color>0000FF</color>
        <width>4</width>
      </line>
    </extensions>
    <trkseg>
      <trkpt lat="44.18462" lon="4.2335">
        <ele>137</ele>
        <time>2023-07-13T13:14:24Z</time>
      </trkpt>
      <trkpt lat="44.18466" lon="4.23345">
        <ele>137</ele>
        <time>2023-07-13T13:14:31Z</time>
      </trkpt>
      <trkpt lat="44.18468" lon="4.23322">
        <ele>137</ele>
        <time>2023-07-13T13:14:53Z</time>
      </trkpt>
      <trkpt lat="44.18503" lon="4.23208">
        <ele>133</ele>
        <time>2023-07-13T13:16:52Z</time>
      </trkpt>
      <trkpt lat="44.18508" lon="4.2318">
        <ele>133</ele>
        <time>2023-07-13T13:17:20Z</time>
      </trkpt>
      <trkpt lat="44.18529" lon="4.23123">
        <ele>132</ele>
        <time>2023-07-13T13:18:21Z</time>
      </trkpt>
      <trkpt lat="44.18532" lon="4.23108">
        <ele>132</ele>
        <time>2023-07-13T13:18:36Z</time>
      </trkpt>
      <trkpt lat="44.1853" lon="4.23106">
        <ele>132</ele>
        <time>2023-07-13T13:18:39Z</time>
      </trkpt>
      <trkpt lat="44.18538" lon="4.23104">
        <ele>132</ele>
        <time>2023-07-13T13:18:50Z</time>
      </trkpt>
      <trkpt lat="44.18562" lon="4.23117">
        <ele>133</ele>
        <time>2023-07-13T13:19:24Z</time>
      </trkpt>
      <trkpt lat="44.18575" lon="4.23128">
        <ele>133</ele>
        <time>2023-07-13T13:19:45Z</time>
      </trkpt>
      <trkpt lat="44.18577" lon="4.23127">
        <ele>133</ele>
        <time>2023-07-13T13:19:47Z</time>
      </trkpt>
      <trkpt lat="44.18609" lon="4.23146">
        <ele>133</ele>
        <time>2023-07-13T13:20:34Z</time>
      </trkpt>
      <trkpt lat="44.18646" lon="4.23172">
        <ele>134</ele>
        <time>2023-07-13T13:21:29Z</time>
      </trkpt>
      <trkpt lat="44.18679" lon="4.232">
        <ele>134</ele>
        <time>2023-07-13T13:22:21Z</time>
      </trkpt>
      <trkpt lat="44.18711" lon="4.2322">
        <ele>134</ele>
        <time>2023-07-13T13:23:07Z</time>
      </trkpt>
      <trkpt lat="44.18733" lon="4.23238">
        <ele>134</ele>
        <time>2023-07-13T13:23:42Z</time>
      </trkpt>
      <trkpt lat="44.1876" lon="4.23265">
        <ele>133</ele>
        <time>2023-07-13T13:24:26Z</time>
      </trkpt>
      <trkpt lat="44.18767" lon="4.23269">
        <ele>134</ele>
        <time>2023-07-13T13:24:36Z</time>
      </trkpt>
      <trkpt lat="44.18772" lon="4.23277">
        <ele>134</ele>
        <time>2023-07-13T13:24:46Z</time>
      </trkpt>
      <trkpt lat="44.18797" lon="4.23292">
        <ele>134</ele>
        <time>2023-07-13T13:25:22Z</time>
      </trkpt>
      <trkpt lat="44.18831" lon="4.23343">
        <ele>132</ele>
        <time>2023-07-13T13:26:29Z</time>
      </trkpt>
      <trkpt lat="44.1884" lon="4.2337">
        <ele>131</ele>
        <time>2023-07-13T13:26:58Z</time>
      </trkpt>
      <trkpt lat="44.18853" lon="4.23395">
        <ele>130</ele>
        <time>2023-07-13T13:27:27Z</time>
      </trkpt>
      <trkpt lat="44.18867" lon="4.23414">
        <ele>129</ele>
        <time>2023-07-13T13:27:53Z</time>
      </trkpt>
      <trkpt lat="44.18881" lon="4.23439">
        <ele>129</ele>
        <time>2023-07-13T13:28:24Z</time>
      </trkpt>
      <trkpt lat="44.1888" lon="4.23444">
        <ele>129</ele>
        <time>2023-07-13T13:28:29Z</time>
      </trkpt>
      <trkpt lat="44.18892" lon="4.23456">
        <ele>129</ele>
        <time>2023-07-13T13:28:48Z</time>
      </trkpt>
      <trkpt lat="44.18913" lon="4.23486">
        <ele>128</ele>
        <time>2023-07-13T13:29:28Z</time>
      </trkpt>
      <trkpt lat="44.18978" lon="4.23596">
        <ele>128</ele>
        <time>2023-07-13T13:31:45Z</time>
      </trkpt>
      <trkpt lat="44.19016" lon="4.2364">
        <ele>129</ele>
        <time>2023-07-13T13:32:51Z</time>
      </trkpt>
      <trkpt lat="44.19042" lon="4.23681">
        <ele>129</ele>
        <time>2023-07-13T13:33:43Z</time>
      </trkpt>
      <trkpt lat="44.19065" lon="4.23709">
        <ele>129</ele>
        <time>2023-07-13T13:34:24Z</time>
      </trkpt>
      <trkpt lat="44.19077" lon="4.23729">
        <ele>130</ele>
        <time>2023-07-13T13:34:49Z</time>
      </trkpt>
      <trkpt lat="44.19087" lon="4.23757">
        <ele>130</ele>
        <time>2023-07-13T13:35:19Z</time>
      </trkpt>
      <trkpt lat="44.19092" lon="4.23774">
        <ele>129</ele>
        <time>2023-07-13T13:35:36Z</time>
      </trkpt>
      <trkpt lat="44.19093" lon="4.23793">
        <ele>129</ele>
        <time>2023-07-13T13:35:54Z</time>
      </trkpt>
      <trkpt lat="44.19081" lon="4.23823">
        <ele>129</ele>
        <time>2023-07-13T13:36:27Z</time>
      </trkpt>
      <trkpt lat="44.19049" lon="4.23881">
        <ele>129</ele>
        <time>2023-07-13T13:37:37Z</time>
      </trkpt>
      <trkpt lat="44.19011" lon="4.23972">
        <ele>129</ele>
        <time>2023-07-13T13:39:18Z</time>
      </trkpt>
      <trkpt lat="44.18999" lon="4.23991">
        <ele>129</ele>
        <time>2023-07-13T13:39:42Z</time>
      </trkpt>
      <trkpt lat="44.18987" lon="4.24019">
        <ele>130</ele>
        <time>2023-07-13T13:40:14Z</time>
      </trkpt>
      <trkpt lat="44.1897" lon="4.24063">
        <ele>132</ele>
        <time>2023-07-13T13:41:01Z</time>
      </trkpt>
      <trkpt lat="44.18969" lon="4.24092">
        <ele>133</ele>
        <time>2023-07-13T13:41:29Z</time>
      </trkpt>
      <trkpt lat="44.19007" lon="4.24123">
        <ele>132</ele>
        <time>2023-07-13T13:42:28Z</time>
      </trkpt>
      <trkpt lat="44.19013" lon="4.24143">
        <ele>132</ele>
        <time>2023-07-13T13:42:49Z</time>
      </trkpt>
      <trkpt lat="44.1901" lon="4.2419">
        <ele>132</ele>
        <time>2023-07-13T13:43:34Z</time>
      </trkpt>
      <trkpt lat="44.19015" lon="4.24225">
        <ele>133</ele>
        <time>2023-07-13T13:44:08Z</time>
      </trkpt>
      <trkpt lat="44.19013" lon="4.24234">
        <ele>133</ele>
        <time>2023-07-13T13:44:17Z</time>
      </trkpt>
      <trkpt lat="44.18995" lon="4.24266">
        <ele>139</ele>
        <time>2023-07-13T13:44:56Z</time>
      </trkpt>
      <trkpt lat="44.18999" lon="4.24285">
        <ele>141</ele>
        <time>2023-07-13T13:45:15Z</time>
      </trkpt>
      <trkpt lat="44.19041" lon="4.2435">
        <ele>146</ele>
        <time>2023-07-13T13:46:39Z</time>
      </trkpt>
      <trkpt lat="44.19049" lon="4.24366">
        <ele>147</ele>
        <time>2023-07-13T13:46:57Z</time>
      </trkpt>
      <trkpt lat="44.19076" lon="4.24389">
        <ele>144</ele>
        <time>2023-07-13T13:47:39Z</time>
      </trkpt>
      <trkpt lat="44.19095" lon="4.24416">
        <ele>144</ele>
        <time>2023-07-13T13:48:16Z</time>
      </trkpt>
      <trkpt lat="44.19116" lon="4.24439">
        <ele>147</ele>
        <time>2023-07-13T13:48:51Z</time>
      </trkpt>
      <trkpt lat="44.19136" lon="4.24452">
        <ele>148</ele>
        <time>2023-07-13T13:49:21Z</time>
      </trkpt>
      <trkpt lat="44.19171" lon="4.24454">
        <ele>146</ele>
        <time>2023-07-13T13:50:07Z</time>
      </trkpt>
      <trkpt lat="44.19241" lon="4.24513">
        <ele>151</ele>
        <time>2023-07-13T13:51:57Z</time>
      </trkpt>
      <trkpt lat="44.19247" lon="4.24521">
        <ele>152</ele>
        <time>2023-07-13T13:52:08Z</time>
      </trkpt>
      <trkpt lat="44.19257" lon="4.24545">
        <ele>155</ele>
        <time>2023-07-13T13:52:34Z</time>
      </trkpt>
      <trkpt lat="44.1927" lon="4.24551">
        <ele>155</ele>
        <time>2023-07-13T13:52:52Z</time>
      </trkpt>
      <trkpt lat="44.19332" lon="4.24565">
        <ele>151</ele>
        <time>2023-07-13T13:54:16Z</time>
      </trkpt>
      <trkpt lat="44.1934" lon="4.2456">
        <ele>150</ele>
        <time>2023-07-13T13:54:28Z</time>
      </trkpt>
      <trkpt lat="44.19376" lon="4.24596">
        <ele>154</ele>
        <time>2023-07-13T13:55:27Z</time>
      </trkpt>
      <trkpt lat="44.19405" lon="4.24592">
        <ele>151</ele>
        <time>2023-07-13T13:56:06Z</time>
      </trkpt>
      <trkpt lat="44.19406" lon="4.24588">
        <ele>150</ele>
        <time>2023-07-13T13:56:10Z</time>
      </trkpt>
      <trkpt lat="44.19417" lon="4.24577">
        <ele>147</ele>
        <time>2023-07-13T13:56:28Z</time>
      </trkpt>
      <trkpt lat="44.19479" lon="4.24564">
        <ele>147</ele>
        <time>2023-07-13T13:57:52Z</time>
      </trkpt>
      <trkpt lat="44.19499" lon="4.24537">
        <ele>143</ele>
        <time>2023-07-13T13:58:29Z</time>
      </trkpt>
      <trkpt lat="44.19521" lon="4.24526">
        <ele>141</ele>
        <time>2023-07-13T13:59:00Z</time>
      </trkpt>
      <trkpt lat="44.19545" lon="4.24522">
        <ele>138</ele>
        <time>2023-07-13T13:59:32Z</time>
      </trkpt>
      <trkpt lat="44.19581" lon="4.24522">
        <ele>136</ele>
        <time>2023-07-13T14:00:20Z</time>
      </trkpt>
      <trkpt lat="44.19598" lon="4.24527">
        <ele>136</ele>
        <time>2023-07-13T14:00:44Z</time>
      </trkpt>
      <trkpt lat="44.19631" lon="4.24527">
        <ele>133</ele>
        <time>2023-07-13T14:01:28Z</time>
      </trkpt>
      <trkpt lat="44.19723" lon="4.24494">
        <ele>127</ele>
        <time>2023-07-13T14:03:34Z</time>
      </trkpt>
      <trkpt lat="44.19807" lon="4.24495">
        <ele>129</ele>
        <time>2023-07-13T14:05:27Z</time>
      </trkpt>
      <trkpt lat="44.19821" lon="4.24475">
        <ele>128</ele>
        <time>2023-07-13T14:05:53Z</time>
      </trkpt>
      <trkpt lat="44.19837" lon="4.24458">
        <ele>128</ele>
        <time>2023-07-13T14:06:20Z</time>
      </trkpt>
      <trkpt lat="44.19876" lon="4.24512">
        <ele>130</ele>
        <time>2023-07-13T14:07:33Z</time>
      </trkpt>
      <trkpt lat="44.19899" lon="4.24527">
        <ele>130</ele>
        <time>2023-07-13T14:08:07Z</time>
      </trkpt>
      <trkpt lat="44.19935" lon="4.24543">
        <ele>129</ele>
        <time>2023-07-13T14:08:58Z</time>
      </trkpt>
      <trkpt lat="44.19937" lon="4.2458">
        <ele>130</ele>
        <time>2023-07-13T14:09:33Z</time>
      </trkpt>
      <trkpt lat="44.19935" lon="4.24584">
        <ele>130</ele>
        <time>2023-07-13T14:09:38Z</time>
      </trkpt>
      <trkpt lat="44.19931" lon="4.24647">
        <ele>128</ele>
        <time>2023-07-13T14:10:38Z</time>
      </trkpt>
      <trkpt lat="44.19931" lon="4.24725">
        <ele>131</ele>
        <time>2023-07-13T14:11:53Z</time>
      </trkpt>
      <trkpt lat="44.19927" lon="4.24766">
        <ele>133</ele>
        <time>2023-07-13T14:12:33Z</time>
      </trkpt>
      <trkpt lat="44.19919" lon="4.24792">
        <ele>134</ele>
        <time>2023-07-13T14:13:00Z</time>
      </trkpt>
      <trkpt lat="44.19899" lon="4.2483">
        <ele>139</ele>
        <time>2023-07-13T14:13:45Z</time>
      </trkpt>
      <trkpt lat="44.1988" lon="4.24851">
        <ele>142</ele>
        <time>2023-07-13T14:14:17Z</time>
      </trkpt>
      <trkpt lat="44.19862" lon="4.24885">
        <ele>145</ele>
        <time>2023-07-13T14:14:58Z</time>
      </trkpt>
      <trkpt lat="44.19853" lon="4.24914">
        <ele>145</ele>
        <time>2023-07-13T14:15:28Z</time>
      </trkpt>
      <trkpt lat="44.19848" lon="4.24922">
        <ele>145</ele>
        <time>2023-07-13T14:15:38Z</time>
      </trkpt>
      <trkpt lat="44.19847" lon="4.24931">
        <ele>145</ele>
        <time>2023-07-13T14:15:47Z</time>
      </trkpt>
      <trkpt lat="44.1983" lon="4.24973">
        <ele>143</ele>
        <time>2023-07-13T14:16:33Z</time>
      </trkpt>
      <trkpt lat="44.19826" lon="4.25001">
        <ele>143</ele>
        <time>2023-07-13T14:17:00Z</time>
      </trkpt>
      <trkpt lat="44.19812" lon="4.25033">
        <ele>148</ele>
        <time>2023-07-13T14:17:36Z</time>
      </trkpt>
      <trkpt lat="44.19786" lon="4.25075">
        <ele>149</ele>
        <time>2023-07-13T14:18:29Z</time>
      </trkpt>
      <trkpt lat="44.19778" lon="4.2508">
        <ele>148</ele>
        <time>2023-07-13T14:18:41Z</time>
      </trkpt>
      <trkpt lat="44.19765" lon="4.25078">
        <ele>147</ele>
        <time>2023-07-13T14:18:58Z</time>
      </trkpt>
      <trkpt lat="44.19751" lon="4.25083">
        <ele>144</ele>
        <time>2023-07-13T14:19:18Z</time>
      </trkpt>
      <trkpt lat="44.1973" lon="4.25095">
        <ele>149</ele>
        <time>2023-07-13T14:19:48Z</time>
      </trkpt>
      <trkpt lat="44.19719" lon="4.2511">
        <ele>152</ele>
        <time>2023-07-13T14:20:08Z</time>
      </trkpt>
      <trkpt lat="44.19664" lon="4.25148">
        <ele>152</ele>
        <time>2023-07-13T14:21:30Z</time>
      </trkpt>
      <trkpt lat="44.19658" lon="4.25155">
        <ele>153</ele>
        <time>2023-07-13T14:21:41Z</time>
      </trkpt>
      <trkpt lat="44.19652" lon="4.25166">
        <ele>153</ele>
        <time>2023-07-13T14:21:54Z</time>
      </trkpt>
      <trkpt lat="44.19647" lon="4.25207">
        <ele>156</ele>
        <time>2023-07-13T14:22:34Z</time>
      </trkpt>
      <trkpt lat="44.19637" lon="4.25228">
        <ele>157</ele>
        <time>2023-07-13T14:22:58Z</time>
      </trkpt>
      <trkpt lat="44.19633" lon="4.25261">
        <ele>157</ele>
        <time>2023-07-13T14:23:30Z</time>
      </trkpt>
      <trkpt lat="44.19619" lon="4.25298">
        <ele>157</ele>
        <time>2023-07-13T14:24:10Z</time>
      </trkpt>
      <trkpt lat="44.19608" lon="4.25325">
        <ele>155</ele>
        <time>2023-07-13T14:24:40Z</time>
      </trkpt>
      <trkpt lat="44.19588" lon="4.25353">
        <ele>149</ele>
        <time>2023-07-13T14:25:17Z</time>
      </trkpt>
      <trkpt lat="44.19569" lon="4.25398">
        <ele>149</ele>
        <time>2023-07-13T14:26:07Z</time>
      </trkpt>
      <trkpt lat="44.19552" lon="4.25422">
        <ele>149</ele>
        <time>2023-07-13T14:26:40Z</time>
      </trkpt>
      <trkpt lat="44.19536" lon="4.25441">
        <ele>148</ele>
        <time>2023-07-13T14:27:08Z</time>
      </trkpt>
      <trkpt lat="44.19489" lon="4.25468">
        <ele>147</ele>
        <time>2023-07-13T14:28:15Z</time>
      </trkpt>
      <trkpt lat="44.19448" lon="4.25482">
        <ele>148</ele>
        <time>2023-07-13T14:29:12Z</time>
      </trkpt>
      <trkpt lat="44.19399" lon="4.25487">
        <ele>148</ele>
        <time>2023-07-13T14:30:17Z</time>
      </trkpt>
      <trkpt lat="44.19339" lon="4.25513">
        <ele>149</ele>
        <time>2023-07-13T14:31:41Z</time>
      </trkpt>
      <trkpt lat="44.19273" lon="4.25576">
        <ele>149</ele>
        <time>2023-07-13T14:33:28Z</time>
      </trkpt>
      <trkpt lat="44.19258" lon="4.256">
        <ele>148</ele>
        <time>2023-07-13T14:33:58Z</time>
      </trkpt>
      <trkpt lat="44.19251" lon="4.25621">
        <ele>149</ele>
        <time>2023-07-13T14:34:21Z</time>
      </trkpt>
      <trkpt lat="44.19247" lon="4.25647">
        <ele>150</ele>
        <time>2023-07-13T14:34:46Z</time>
      </trkpt>
      <trkpt lat="44.1923" lon="4.25655">
        <ele>150</ele>
        <time>2023-07-13T14:35:10Z</time>
      </trkpt>
      <trkpt lat="44.19212" lon="4.25668">
        <ele>149</ele>
        <time>2023-07-13T14:35:37Z</time>
      </trkpt>
      <trkpt lat="44.19193" lon="4.25697">
        <ele>151</ele>
        <time>2023-07-13T14:36:15Z</time>
      </trkpt>
      <trkpt lat="44.19187" lon="4.25711">
        <ele>151</ele>
        <time>2023-07-13T14:36:30Z</time>
      </trkpt>
      <trkpt lat="44.19174" lon="4.25765">
        <ele>154</ele>
        <time>2023-07-13T14:37:25Z</time>
      </trkpt>
      <trkpt lat="44.1915" lon="4.25835">
        <ele>157</ele>
        <time>2023-07-13T14:38:39Z</time>
      </trkpt>
      <trkpt lat="44.19133" lon="4.25909">
        <ele>159</ele>
        <time>2023-07-13T14:39:53Z</time>
      </trkpt>
      <trkpt lat="44.19129" lon="4.25941">
        <ele>160</ele>
        <time>2023-07-13T14:40:24Z</time>
      </trkpt>
      <trkpt lat="44.19119" lon="4.25984">
        <ele>160</ele>
        <time>2023-07-13T14:41:08Z</time>
      </trkpt>
      <trkpt lat="44.1909" lon="4.26058">
        <ele>154</ele>
        <time>2023-07-13T14:42:28Z</time>
      </trkpt>
      <trkpt lat="44.19091" lon="4.26067">
        <ele>154</ele>
        <time>2023-07-13T14:42:37Z</time>
      </trkpt>
      <trkpt lat="44.19069" lon="4.26125">
        <ele>155</ele>
        <time>2023-07-13T14:43:40Z</time>
      </trkpt>
      <trkpt lat="44.19063" lon="4.26163">
        <ele>157</ele>
        <time>2023-07-13T14:44:17Z</time>
      </trkpt>
      <trkpt lat="44.19046" lon="4.26205">
        <ele>159</ele>
        <time>2023-07-13T14:45:03Z</time>
      </trkpt>
      <trkpt lat="44.19045" lon="4.26216">
        <ele>160</ele>
        <time>2023-07-13T14:45:14Z</time>
      </trkpt>
      <trkpt lat="44.19026" lon="4.26251">
        <ele>160</ele>
        <time>2023-07-13T14:45:56Z</time>
      </trkpt>
      <trkpt lat="44.19002" lon="4.26289">
        <ele>160</ele>
        <time>2023-07-13T14:46:44Z</time>
      </trkpt>
      <trkpt lat="44.18992" lon="4.26301">
        <ele>161</ele>
        <time>2023-07-13T14:47:02Z</time>
      </trkpt>
      <trkpt lat="44.18988" lon="4.26315">
        <ele>163</ele>
        <time>2023-07-13T14:47:16Z</time>
      </trkpt>
      <trkpt lat="44.18916" lon="4.2644">
        <ele>163</ele>
        <time>2023-07-13T14:49:50Z</time>
      </trkpt>
      <trkpt lat="44.18902" lon="4.26479">
        <ele>167</ele>
        <time>2023-07-13T14:50:31Z</time>
      </trkpt>
      <trkpt lat="44.18875" lon="4.26509">
        <ele>170</ele>
        <time>2023-07-13T14:51:18Z</time>
      </trkpt>
      <trkpt lat="44.18824" lon="4.26586">
        <ele>167</ele>
        <time>2023-07-13T14:52:58Z</time>
      </trkpt>
      <trkpt lat="44.18808" lon="4.26592">
        <ele>169</ele>
        <time>2023-07-13T14:53:20Z</time>
      </trkpt>
      <trkpt lat="44.18776" lon="4.26577">
        <ele>173</ele>
        <time>2023-07-13T14:54:05Z</time>
      </trkpt>
      <trkpt lat="44.18755" lon="4.26571">
        <ele>177</ele>
        <time>2023-07-13T14:54:34Z</time>
      </trkpt>
      <trkpt lat="44.18738" lon="4.26562">
        <ele>180</ele>
        <time>2023-07-13T14:54:58Z</time>
      </trkpt>
      <trkpt lat="44.18702" lon="4.26554">
        <ele>183</ele>
        <time>2023-07-13T14:55:46Z</time>
      </trkpt>
      <trkpt lat="44.18685" lon="4.26553">
        <ele>185</ele>
        <time>2023-07-13T14:56:09Z</time>
      </trkpt>
      <trkpt lat="44.18662" lon="4.26544">
        <ele>187</ele>
        <time>2023-07-13T14:56:41Z</time>
      </trkpt>
      <trkpt lat="44.18641" lon="4.26543">
        <ele>188</ele>
        <time>2023-07-13T14:57:09Z</time>
      </trkpt>
      <trkpt lat="44.18616" lon="4.26535">
        <ele>190</ele>
        <time>2023-07-13T14:57:43Z</time>
      </trkpt>
      <trkpt lat="44.18594" lon="4.26523">
        <ele>192</ele>
        <time>2023-07-13T14:58:15Z</time>
      </trkpt>
      <trkpt lat="44.18578" lon="4.2652">
        <ele>193</ele>
        <time>2023-07-13T14:58:36Z</time>
      </trkpt>
      <trkpt lat="44.18547" lon="4.26542">
        <ele>195</ele>
        <time>2023-07-13T14:59:23Z</time>
      </trkpt>
      <trkpt lat="44.18519" lon="4.26585">
        <ele>192</ele>
        <time>2023-07-13T15:00:18Z</time>
      </trkpt>
      <trkpt lat="44.18493" lon="4.26617">
        <ele>196</ele>
        <time>2023-07-13T15:01:05Z</time>
      </trkpt>
      <trkpt lat="44.18474" lon="4.26635">
        <ele>200</ele>
        <time>2023-07-13T15:01:35Z</time>
      </trkpt>
      <trkpt lat="44.18461" lon="4.26655">
        <ele>200</ele>
        <time>2023-07-13T15:02:01Z</time>
      </trkpt>
      <trkpt lat="44.18437" lon="4.26679">
        <ele>202</ele>
        <time>2023-07-13T15:02:41Z</time>
      </trkpt>
      <trkpt lat="44.18425" lon="4.26695">
        <ele>202</ele>
        <time>2023-07-13T15:03:03Z</time>
      </trkpt>
      <trkpt lat="44.18404" lon="4.26703">
        <ele>203</ele>
        <time>2023-07-13T15:03:32Z</time>
      </trkpt>
      <trkpt lat="44.18392" lon="4.267">
        <ele>205</ele>
        <time>2023-07-13T15:03:48Z</time>
      </trkpt>
      <trkpt lat="44.1838" lon="4.26692">
        <ele>206</ele>
        <time>2023-07-13T15:04:06Z</time>
      </trkpt>
      <trkpt lat="44.1835" lon="4.26656">
        <ele>208</ele>
        <time>2023-07-13T15:04:59Z</time>
      </trkpt>
      <trkpt lat="44.18339" lon="4.2665">
        <ele>209</ele>
        <time>2023-07-13T15:05:14Z</time>
      </trkpt>
      <trkpt lat="44.18322" lon="4.26625">
        <ele>211</ele>
        <time>2023-07-13T15:05:47Z</time>
      </trkpt>
      <trkpt lat="44.18314" lon="4.26619">
        <ele>212</ele>
        <time>2023-07-13T15:05:59Z</time>
      </trkpt>
      <trkpt lat="44.1831" lon="4.26621">
        <ele>213</ele>
        <time>2023-07-13T15:06:05Z</time>
      </trkpt>
      <trkpt lat="44.18306" lon="4.26636">
        <ele>213</ele>
        <time>2023-07-13T15:06:20Z</time>
      </trkpt>
      <trkpt lat="44.1837" lon="4.26764">
        <ele>206</ele>
        <time>2023-07-13T15:08:50Z</time>
      </trkpt>
      <trkpt lat="44.18373" lon="4.26789">
        <ele>203</ele>
        <time>2023-07-13T15:09:14Z</time>
      </trkpt>
      <trkpt lat="44.18364" lon="4.26792">
        <ele>203</ele>
        <time>2023-07-13T15:09:26Z</time>
      </trkpt>
      <trkpt lat="44.18304" lon="4.26796">
        <ele>206</ele>
        <time>2023-07-13T15:10:47Z</time>
      </trkpt>
      <trkpt lat="44.1828" lon="4.26788">
        <ele>209</ele>
        <time>2023-07-13T15:11:19Z</time>
      </trkpt>
      <trkpt lat="44.18215" lon="4.26745">
        <ele>218</ele>
        <time>2023-07-13T15:12:55Z</time>
      </trkpt>
      <trkpt lat="44.18207" lon="4.26743">
        <ele>218</ele>
        <time>2023-07-13T15:13:06Z</time>
      </trkpt>
      <trkpt lat="44.18205" lon="4.26745">
        <ele>217</ele>
        <time>2023-07-13T15:13:10Z</time>
      </trkpt>
      <trkpt lat="44.1818" lon="4.26722">
        <ele>219</ele>
        <time>2023-07-13T15:13:50Z</time>
      </trkpt>
      <trkpt lat="44.18176" lon="4.26723">
        <ele>219</ele>
        <time>2023-07-13T15:13:55Z</time>
      </trkpt>
      <trkpt lat="44.18161" lon="4.26719">
        <ele>220</ele>
        <time>2023-07-13T15:14:15Z</time>
      </trkpt>
      <trkpt lat="44.18147" lon="4.26708">
        <ele>223</ele>
        <time>2023-07-13T15:14:37Z</time>
      </trkpt>
      <trkpt lat="44.18118" lon="4.26697">
        <ele>227</ele>
        <time>2023-07-13T15:15:17Z</time>
      </trkpt>
      <trkpt lat="44.18146" lon="4.26691">
        <ele>225</ele>
        <time>2023-07-13T15:15:55Z</time>
      </trkpt>
      <trkpt lat="44.18166" lon="4.26693">
        <ele>223</ele>
        <time>2023-07-13T15:16:22Z</time>
      </trkpt>
      <trkpt lat="44.18193" lon="4.26675">
        <ele>224</ele>
        <time>2023-07-13T15:17:01Z</time>
      </trkpt>
      <trkpt lat="44.18193" lon="4.26661">
        <ele>224</ele>
        <time>2023-07-13T15:17:15Z</time>
      </trkpt>
      <trkpt lat="44.18183" lon="4.26652">
        <ele>224</ele>
        <time>2023-07-13T15:17:31Z</time>
      </trkpt>
      <trkpt lat="44.18149" lon="4.26636">
        <ele>225</ele>
        <time>2023-07-13T15:18:19Z</time>
      </trkpt>
      <trkpt lat="44.18116" lon="4.26602">
        <ele>228</ele>
        <time>2023-07-13T15:19:13Z</time>
      </trkpt>
      <trkpt lat="44.18107" lon="4.2659">
        <ele>229</ele>
        <time>2023-07-13T15:19:30Z</time>
      </trkpt>
      <trkpt lat="44.18099" lon="4.26572">
        <ele>229</ele>
        <time>2023-07-13T15:19:50Z</time>
      </trkpt>
      <trkpt lat="44.18088" lon="4.26565">
        <ele>230</ele>
        <time>2023-07-13T15:20:06Z</time>
      </trkpt>
      <trkpt lat="44.18072" lon="4.26541">
        <ele>231</ele>
        <time>2023-07-13T15:20:38Z</time>
      </trkpt>
      <trkpt lat="44.18043" lon="4.26509">
        <ele>233</ele>
        <time>2023-07-13T15:21:27Z</time>
      </trkpt>
      <trkpt lat="44.18029" lon="4.26476">
        <ele>232</ele>
        <time>2023-07-13T15:22:04Z</time>
      </trkpt>
      <trkpt lat="44.18018" lon="4.2646">
        <ele>231</ele>
        <time>2023-07-13T15:22:25Z</time>
      </trkpt>
      <trkpt lat="44.18012" lon="4.26455">
        <ele>231</ele>
        <time>2023-07-13T15:22:34Z</time>
      </trkpt>
      <trkpt lat="44.17989" lon="4.26446">
        <ele>234</ele>
        <time>2023-07-13T15:23:06Z</time>
      </trkpt>
      <trkpt lat="44.17982" lon="4.26437">
        <ele>234</ele>
        <time>2023-07-13T15:23:19Z</time>
      </trkpt>
      <trkpt lat="44.17977" lon="4.26426">
        <ele>234</ele>
        <time>2023-07-13T15:23:31Z</time>
      </trkpt>
      <trkpt lat="44.17973" lon="4.26358">
        <ele>225</ele>
        <time>2023-07-13T15:24:37Z</time>
      </trkpt>
      <trkpt lat="44.17956" lon="4.26314">
        <ele>221</ele>
        <time>2023-07-13T15:25:24Z</time>
      </trkpt>
      <trkpt lat="44.17953" lon="4.26292">
        <ele>219</ele>
        <time>2023-07-13T15:25:46Z</time>
      </trkpt>
      <trkpt lat="44.17946" lon="4.26275">
        <ele>218</ele>
        <time>2023-07-13T15:26:05Z</time>
      </trkpt>
      <trkpt lat="44.17946" lon="4.26263">
        <ele>217</ele>
        <time>2023-07-13T15:26:16Z</time>
      </trkpt>
      <trkpt lat="44.17943" lon="4.2626">
        <ele>216</ele>
        <time>2023-07-13T15:26:21Z</time>
      </trkpt>
      <trkpt lat="44.17935" lon="4.26259">
        <ele>215</ele>
        <time>2023-07-13T15:26:32Z</time>
      </trkpt>
      <trkpt lat="44.17916" lon="4.26265">
        <ele>212</ele>
        <time>2023-07-13T15:26:58Z</time>
      </trkpt>
      <trkpt lat="44.17889" lon="4.26262">
        <ele>212</ele>
        <time>2023-07-13T15:27:34Z</time>
      </trkpt>
      <trkpt lat="44.17864" lon="4.26264">
        <ele>212</ele>
        <time>2023-07-13T15:28:07Z</time>
      </trkpt>
      <trkpt lat="44.17818" lon="4.26252">
        <ele>210</ele>
        <time>2023-07-13T15:29:10Z</time>
      </trkpt>
      <trkpt lat="44.17793" lon="4.26251">
        <ele>211</ele>
        <time>2023-07-13T15:29:43Z</time>
      </trkpt>
      <trkpt lat="44.17782" lon="4.26245">
        <ele>213</ele>
        <time>2023-07-13T15:29:59Z</time>
      </trkpt>
      <trkpt lat="44.17729" lon="4.26248">
        <ele>215</ele>
        <time>2023-07-13T15:31:10Z</time>
      </trkpt>
      <trkpt lat="44.17684" lon="4.26233">
        <ele>222</ele>
        <time>2023-07-13T15:32:11Z</time>
      </trkpt>
      <trkpt lat="44.17658" lon="4.26231">
        <ele>224</ele>
        <time>2023-07-13T15:32:46Z</time>
      </trkpt>
      <trkpt lat="44.17651" lon="4.26224">
        <ele>227</ele>
        <time>2023-07-13T15:32:58Z</time>
      </trkpt>
      <trkpt lat="44.17636" lon="4.26225">
        <ele>228</ele>
        <time>2023-07-13T15:33:18Z</time>
      </trkpt>
      <trkpt lat="44.17631" lon="4.26228">
        <ele>228</ele>
        <time>2023-07-13T15:33:25Z</time>
      </trkpt>
      <trkpt lat="44.17621" lon="4.26244">
        <ele>223</ele>
        <time>2023-07-13T15:33:45Z</time>
      </trkpt>
      <trkpt lat="44.17621" lon="4.26249">
        <ele>222</ele>
        <time>2023-07-13T15:33:50Z</time>
      </trkpt>
      <trkpt lat="44.17596" lon="4.26258">
        <ele>224</ele>
        <time>2023-07-13T15:34:25Z</time>
      </trkpt>
      <trkpt lat="44.17583" lon="4.26257">
        <ele>225</ele>
        <time>2023-07-13T15:34:42Z</time>
      </trkpt>
      <trkpt lat="44.17551" lon="4.26301">
        <ele>237</ele>
        <time>2023-07-13T15:35:42Z</time>
      </trkpt>
      <trkpt lat="44.17521" lon="4.2632">
        <ele>241</ele>
        <time>2023-07-13T15:36:26Z</time>
      </trkpt>
      <trkpt lat="44.1752" lon="4.26327">
        <ele>241</ele>
        <time>2023-07-13T15:36:33Z</time>
      </trkpt>
      <trkpt lat="44.17539" lon="4.26306">
        <ele>240</ele>
        <time>2023-07-13T15:37:05Z</time>
      </trkpt>
      <trkpt lat="44.17537" lon="4.26315">
        <ele>240</ele>
        <time>2023-07-13T15:37:14Z</time>
      </trkpt>
      <trkpt lat="44.17551" lon="4.26313">
        <ele>238</ele>
        <time>2023-07-13T15:37:33Z</time>
      </trkpt>
      <trkpt lat="44.17564" lon="4.26289">
        <ele>234</ele>
        <time>2023-07-13T15:38:02Z</time>
      </trkpt>
      <trkpt lat="44.17584" lon="4.26263">
        <ele>226</ele>
        <time>2023-07-13T15:38:38Z</time>
      </trkpt>
      <trkpt lat="44.17605" lon="4.26257">
        <ele>224</ele>
        <time>2023-07-13T15:39:07Z</time>
      </trkpt>
      <trkpt lat="44.1762" lon="4.26235">
        <ele>226</ele>
        <time>2023-07-13T15:39:36Z</time>
      </trkpt>
      <trkpt lat="44.17645" lon="4.26229">
        <ele>226</ele>
        <time>2023-07-13T15:40:10Z</time>
      </trkpt>
      <trkpt lat="44.1767" lon="4.26229">
        <ele>223</ele>
        <time>2023-07-13T15:40:43Z</time>
      </trkpt>
      <trkpt lat="44.17682" lon="4.26233">
        <ele>222</ele>
        <time>2023-07-13T15:41:00Z</time>
      </trkpt>
      <trkpt lat="44.17679" lon="4.26233">
        <ele>222</ele>
        <time>2023-07-13T15:41:04Z</time>
      </trkpt>
      <trkpt lat="44.17692" lon="4.26242">
        <ele>219</ele>
        <time>2023-07-13T15:41:23Z</time>
      </trkpt>
      <trkpt lat="44.17735" lon="4.26249">
        <ele>214</ele>
        <time>2023-07-13T15:42:21Z</time>
      </trkpt>
      <trkpt lat="44.17755" lon="4.26249">
        <ele>213</ele>
        <time>2023-07-13T15:42:47Z</time>
      </trkpt>
      <trkpt lat="44.17792" lon="4.26256">
        <ele>212</ele>
        <time>2023-07-13T15:43:37Z</time>
      </trkpt>
      <trkpt lat="44.1782" lon="4.26254">
        <ele>211</ele>
        <time>2023-07-13T15:44:15Z</time>
      </trkpt>
      <trkpt lat="44.17836" lon="4.26261">
        <ele>212</ele>
        <time>2023-07-13T15:44:37Z</time>
      </trkpt>
      <trkpt lat="44.17855" lon="4.26265">
        <ele>212</ele>
        <time>2023-07-13T15:45:03Z</time>
      </trkpt>
      <trkpt lat="44.17892" lon="4.26265">
        <ele>212</ele>
        <time>2023-07-13T15:45:52Z</time>
      </trkpt>
      <trkpt lat="44.17898" lon="4.26262">
        <ele>212</ele>
        <time>2023-07-13T15:46:00Z</time>
      </trkpt>
      <trkpt lat="44.17946" lon="4.26252">
        <ele>216</ele>
        <time>2023-07-13T15:47:05Z</time>
      </trkpt>
      <trkpt lat="44.17948" lon="4.26249">
        <ele>216</ele>
        <time>2023-07-13T15:47:09Z</time>
      </trkpt>
      <trkpt lat="44.17938" lon="4.26177">
        <ele>218</ele>
        <time>2023-07-13T15:48:19Z</time>
      </trkpt>
      <trkpt lat="44.17932" lon="4.26157">
        <ele>217</ele>
        <time>2023-07-13T15:48:40Z</time>
      </trkpt>
      <trkpt lat="44.17913" lon="4.26121">
        <ele>213</ele>
        <time>2023-07-13T15:49:23Z</time>
      </trkpt>
      <trkpt lat="44.179" lon="4.26104">
        <ele>214</ele>
        <time>2023-07-13T15:49:47Z</time>
      </trkpt>
      <trkpt lat="44.179" lon="4.26067">
        <ele>214</ele>
        <time>2023-07-13T15:50:22Z</time>
      </trkpt>
      <trkpt lat="44.17894" lon="4.2604">
        <ele>214</ele>
        <time>2023-07-13T15:50:49Z</time>
      </trkpt>
      <trkpt lat="44.17891" lon="4.2601">
        <ele>214</ele>
        <time>2023-07-13T15:51:18Z</time>
      </trkpt>
      <trkpt lat="44.17893" lon="4.25965">
        <ele>214</ele>
        <time>2023-07-13T15:52:01Z</time>
      </trkpt>
      <trkpt lat="44.17897" lon="4.2594">
        <ele>214</ele>
        <time>2023-07-13T15:52:26Z</time>
      </trkpt>
      <trkpt lat="44.17904" lon="4.25902">
        <ele>214</ele>
        <time>2023-07-13T15:53:03Z</time>
      </trkpt>
      <trkpt lat="44.17916" lon="4.25865">
        <ele>213</ele>
        <time>2023-07-13T15:53:42Z</time>
      </trkpt>
      <trkpt lat="44.1792" lon="4.25774">
        <ele>216</ele>
        <time>2023-07-13T15:55:09Z</time>
      </trkpt>
      <trkpt lat="44.1793" lon="4.2572">
        <ele>222</ele>
        <time>2023-07-13T15:56:03Z</time>
      </trkpt>
      <trkpt lat="44.17925" lon="4.25712">
        <ele>221</ele>
        <time>2023-07-13T15:56:13Z</time>
      </trkpt>
      <trkpt lat="44.17916" lon="4.25715">
        <ele>217</ele>
        <time>2023-07-13T15:56:25Z</time>
      </trkpt>
      <trkpt lat="44.17907" lon="4.25703">
        <ele>218</ele>
        <time>2023-07-13T15:56:42Z</time>
      </trkpt>
      <trkpt lat="44.17899" lon="4.25701">
        <ele>217</ele>
        <time>2023-07-13T15:56:53Z</time>
      </trkpt>
      <trkpt lat="44.17896" lon="4.25697">
        <ele>217</ele>
        <time>2023-07-13T15:56:58Z</time>
      </trkpt>
      <trkpt lat="44.17892" lon="4.25696">
        <ele>217</ele>
        <time>2023-07-13T15:57:04Z</time>
      </trkpt>
      <trkpt lat="44.17902" lon="4.25695">
        <ele>218</ele>
        <time>2023-07-13T15:57:17Z</time>
      </trkpt>
      <trkpt lat="44.17907" lon="4.25686">
        <ele>219</ele>
        <time>2023-07-13T15:57:28Z</time>
      </trkpt>
      <trkpt lat="44.17902" lon="4.25688">
        <ele>218</ele>
        <time>2023-07-13T15:57:35Z</time>
      </trkpt>
      <trkpt lat="44.17895" lon="4.25678">
        <ele>218</ele>
        <time>2023-07-13T15:57:48Z</time>
      </trkpt>
      <trkpt lat="44.17889" lon="4.25679">
        <ele>217</ele>
        <time>2023-07-13T15:57:56Z</time>
      </trkpt>
      <trkpt lat="44.17886" lon="4.25671">
        <ele>216</ele>
        <time>2023-07-13T15:58:05Z</time>
      </trkpt>
      <trkpt lat="44.17875" lon="4.25662">
        <ele>215</ele>
        <time>2023-07-13T15:58:22Z</time>
      </trkpt>
      <trkpt lat="44.1787" lon="4.25662">
        <ele>214</ele>
        <time>2023-07-13T15:58:29Z</time>
      </trkpt>
      <trkpt lat="44.17874" lon="4.2566">
        <ele>215</ele>
        <time>2023-07-13T15:58:34Z</time>
      </trkpt>
      <trkpt lat="44.17873" lon="4.25663">
        <ele>215</ele>
        <time>2023-07-13T15:58:38Z</time>
      </trkpt>
      <trkpt lat="44.17867" lon="4.2566">
        <ele>214</ele>
        <time>2023-07-13T15:58:46Z</time>
      </trkpt>
      <trkpt lat="44.17848" lon="4.25634">
        <ele>212</ele>
        <time>2023-07-13T15:59:22Z</time>
      </trkpt>
      <trkpt lat="44.17846" lon="4.25639">
        <ele>212</ele>
        <time>2023-07-13T15:59:27Z</time>
      </trkpt>
      <trkpt lat="44.17842" lon="4.25623">
        <ele>212</ele>
        <time>2023-07-13T15:59:43Z</time>
      </trkpt>
      <trkpt lat="44.17839" lon="4.25623">
        <ele>211</ele>
        <time>2023-07-13T15:59:47Z</time>
      </trkpt>
      <trkpt lat="44.17839" lon="4.25631">
        <ele>210</ele>
        <time>2023-07-13T15:59:55Z</time>
      </trkpt>
      <trkpt lat="44.17841" lon="4.25629">
        <ele>211</ele>
        <time>2023-07-13T15:59:58Z</time>
      </trkpt>
      <trkpt lat="44.1783" lon="4.25627">
        <ele>209</ele>
        <time>2023-07-13T16:00:13Z</time>
      </trkpt>
      <trkpt lat="44.17823" lon="4.25632">
        <ele>208</ele>
        <time>2023-07-13T16:00:24Z</time>
      </trkpt>
      <trkpt lat="44.17814" lon="4.25645">
        <ele>207</ele>
        <time>2023-07-13T16:00:41Z</time>
      </trkpt>
      <trkpt lat="44.17809" lon="4.25648">
        <ele>207</ele>
        <time>2023-07-13T16:00:48Z</time>
      </trkpt>
      <trkpt lat="44.17804" lon="4.25658">
        <ele>206</ele>
        <time>2023-07-13T16:01:00Z</time>
      </trkpt>
      <trkpt lat="44.17806" lon="4.25661">
        <ele>206</ele>
        <time>2023-07-13T16:01:04Z</time>
      </trkpt>
      <trkpt lat="44.17805" lon="4.25684">
        <ele>207</ele>
        <time>2023-07-13T16:01:26Z</time>
      </trkpt>
      <trkpt lat="44.17808" lon="4.25693">
        <ele>209</ele>
        <time>2023-07-13T16:01:35Z</time>
      </trkpt>
      <trkpt lat="44.17793" lon="4.257">
        <ele>207</ele>
        <time>2023-07-13T16:01:56Z</time>
      </trkpt>
      <trkpt lat="44.17791" lon="4.25706">
        <ele>208</ele>
        <time>2023-07-13T16:02:03Z</time>
      </trkpt>
      <trkpt lat="44.17778" lon="4.25704">
        <ele>206</ele>
        <time>2023-07-13T16:02:20Z</time>
      </trkpt>
      <trkpt lat="44.17772" lon="4.25699">
        <ele>205</ele>
        <time>2023-07-13T16:02:29Z</time>
      </trkpt>
      <trkpt lat="44.17776" lon="4.25705">
        <ele>206</ele>
        <time>2023-07-13T16:02:37Z</time>
      </trkpt>
      <trkpt lat="44.17781" lon="4.25705">
        <ele>206</ele>
        <time>2023-07-13T16:02:44Z</time>
      </trkpt>
      <trkpt lat="44.17785" lon="4.25708">
        <ele>207</ele>
        <time>2023-07-13T16:02:50Z</time>
      </trkpt>
      <trkpt lat="44.17788" lon="4.25708">
        <ele>207</ele>
        <time>2023-07-13T16:02:54Z</time>
      </trkpt>
      <trkpt lat="44.17794" lon="4.25699">
        <ele>208</ele>
        <time>2023-07-13T16:03:06Z</time>
      </trkpt>
      <trkpt lat="44.17808" lon="4.25699">
        <ele>209</ele>
        <time>2023-07-13T16:03:24Z</time>
      </trkpt>
      <trkpt lat="44.17814" lon="4.25715">
        <ele>212</ele>
        <time>2023-07-13T16:03:42Z</time>
      </trkpt>
      <trkpt lat="44.17804" lon="4.25769">
        <ele>218</ele>
        <time>2023-07-13T16:04:35Z</time>
      </trkpt>
      <trkpt lat="44.17785" lon="4.25814">
        <ele>224</ele>
        <time>2023-07-13T16:05:25Z</time>
      </trkpt>
      <trkpt lat="44.17783" lon="4.25841">
        <ele>230</ele>
        <time>2023-07-13T16:05:51Z</time>
      </trkpt>
      <trkpt lat="44.17791" lon="4.2586">
        <ele>233</ele>
        <time>2023-07-13T16:06:12Z</time>
      </trkpt>
      <trkpt lat="44.17754" lon="4.25902">
        <ele>245</ele>
        <time>2023-07-13T16:07:16Z</time>
      </trkpt>
      <trkpt lat="44.1775" lon="4.25903">
        <ele>247</ele>
        <time>2023-07-13T16:07:21Z</time>
      </trkpt>
      <trkpt lat="44.17739" lon="4.25915">
        <ele>250</ele>
        <time>2023-07-13T16:07:40Z</time>
      </trkpt>
      <trkpt lat="44.17734" lon="4.2593">
        <ele>254</ele>
        <time>2023-07-13T16:07:56Z</time>
      </trkpt>
      <trkpt lat="44.17736" lon="4.25942">
        <ele>257</ele>
        <time>2023-07-13T16:08:08Z</time>
      </trkpt>
      <trkpt lat="44.17751" lon="4.2595">
        <ele>258</ele>
        <time>2023-07-13T16:08:29Z</time>
      </trkpt>
      <trkpt lat="44.1776" lon="4.25961">
        <ele>256</ele>
        <time>2023-07-13T16:08:45Z</time>
      </trkpt>
      <trkpt lat="44.17755" lon="4.25964">
        <ele>259</ele>
        <time>2023-07-13T16:08:52Z</time>
      </trkpt>
      <trkpt lat="44.17741" lon="4.26016">
        <ele>270</ele>
        <time>2023-07-13T16:09:45Z</time>
      </trkpt>
      <trkpt lat="44.17747" lon="4.2603">
        <ele>270</ele>
        <time>2023-07-13T16:10:01Z</time>
      </trkpt>
      <trkpt lat="44.1774" lon="4.26034">
        <ele>271</ele>
        <time>2023-07-13T16:10:11Z</time>
      </trkpt>
      <trkpt lat="44.17717" lon="4.2604">
        <ele>274</ele>
        <time>2023-07-13T16:10:42Z</time>
      </trkpt>
      <trkpt lat="44.1769" lon="4.26032">
        <ele>277</ele>
        <time>2023-07-13T16:11:19Z</time>
      </trkpt>
      <trkpt lat="44.17681" lon="4.26033">
        <ele>278</ele>
        <time>2023-07-13T16:11:31Z</time>
      </trkpt>
      <trkpt lat="44.17661" lon="4.2603">
        <ele>280</ele>
        <time>2023-07-13T16:11:58Z</time>
      </trkpt>
      <trkpt lat="44.17606" lon="4.26049">
        <ele>284</ele>
        <time>2023-07-13T16:13:14Z</time>
      </trkpt>
      <trkpt lat="44.17585" lon="4.26052">
        <ele>285</ele>
        <time>2023-07-13T16:13:42Z</time>
      </trkpt>
      <trkpt lat="44.17579" lon="4.26056">
        <ele>286</ele>
        <time>2023-07-13T16:13:51Z</time>
      </trkpt>
      <trkpt lat="44.17564" lon="4.26056">
        <ele>286</ele>
        <time>2023-07-13T16:14:11Z</time>
      </trkpt>
      <trkpt lat="44.17544" lon="4.26063">
        <ele>288</ele>
        <time>2023-07-13T16:14:38Z</time>
      </trkpt>
      <trkpt lat="44.17533" lon="4.26073">
        <ele>289</ele>
        <time>2023-07-13T16:14:56Z</time>
      </trkpt>
      <trkpt lat="44.17521" lon="4.26077">
        <ele>291</ele>
        <time>2023-07-13T16:15:12Z</time>
      </trkpt>
      <trkpt lat="44.1743" lon="4.26132">
        <ele>297</ele>
        <time>2023-07-13T16:17:25Z</time>
      </trkpt>
      <trkpt lat="44.174" lon="4.26171">
        <ele>304</ele>
        <time>2023-07-13T16:18:19Z</time>
      </trkpt>
      <trkpt lat="44.17394" lon="4.26173">
        <ele>305</ele>
        <time>2023-07-13T16:18:28Z</time>
      </trkpt>
      <trkpt lat="44.17358" lon="4.26202">
        <ele>308</ele>
        <time>2023-07-13T16:19:23Z</time>
      </trkpt>
      <trkpt lat="44.17341" lon="4.2621">
        <ele>310</ele>
        <time>2023-07-13T16:19:47Z</time>
      </trkpt>
      <trkpt lat="44.17335" lon="4.26211">
        <ele>311</ele>
        <time>2023-07-13T16:19:55Z</time>
      </trkpt>
      <trkpt lat="44.17323" lon="4.26205">
        <ele>311</ele>
        <time>2023-07-13T16:20:12Z</time>
      </trkpt>
      <trkpt lat="44.17319" lon="4.26199">
        <ele>311</ele>
        <time>2023-07-13T16:20:20Z</time>
      </trkpt>
      <trkpt lat="44.17291" lon="4.26151">
        <ele>310</ele>
        <time>2023-07-13T16:21:19Z</time>
      </trkpt>
      <trkpt lat="44.17271" lon="4.26105">
        <ele>309</ele>
        <time>2023-07-13T16:22:11Z</time>
      </trkpt>
      <trkpt lat="44.17247" lon="4.26075">
        <ele>309</ele>
        <time>2023-07-13T16:22:54Z</time>
      </trkpt>
      <trkpt lat="44.17232" lon="4.26049">
        <ele>305</ele>
        <time>2023-07-13T16:23:25Z</time>
      </trkpt>
      <trkpt lat="44.17218" lon="4.26017">
        <ele>302</ele>
        <time>2023-07-13T16:24:01Z</time>
      </trkpt>
      <trkpt lat="44.172" lon="4.25958">
        <ele>299</ele>
        <time>2023-07-13T16:25:03Z</time>
      </trkpt>
      <trkpt lat="44.17184" lon="4.25821">
        <ele>294</ele>
        <time>2023-07-13T16:27:16Z</time>
      </trkpt>
      <trkpt lat="44.17181" lon="4.25809">
        <ele>294</ele>
        <time>2023-07-13T16:27:28Z</time>
      </trkpt>
      <trkpt lat="44.17177" lon="4.25804">
        <ele>294</ele>
        <time>2023-07-13T16:27:35Z</time>
      </trkpt>
      <trkpt lat="44.17177" lon="4.25798">
        <ele>294</ele>
        <time>2023-07-13T16:27:41Z</time>
      </trkpt>
      <trkpt lat="44.17174" lon="4.25801">
        <ele>294</ele>
        <time>2023-07-13T16:27:46Z</time>
      </trkpt>
      <trkpt lat="44.17185" lon="4.25795">
        <ele>293</ele>
        <time>2023-07-13T16:28:01Z</time>
      </trkpt>
      <trkpt lat="44.17206" lon="4.25792">
        <ele>291</ele>
        <time>2023-07-13T16:28:30Z</time>
      </trkpt>
      <trkpt lat="44.17229" lon="4.25794">
        <ele>288</ele>
        <time>2023-07-13T16:29:00Z</time>
      </trkpt>
      <trkpt lat="44.17239" lon="4.25792">
        <ele>287</ele>
        <time>2023-07-13T16:29:14Z</time>
      </trkpt>
      <trkpt lat="44.17258" lon="4.25767">
        <ele>283</ele>
        <time>2023-07-13T16:29:49Z</time>
      </trkpt>
      <trkpt lat="44.17286" lon="4.25751">
        <ele>279</ele>
        <time>2023-07-13T16:30:29Z</time>
      </trkpt>
      <trkpt lat="44.17294" lon="4.25744">
        <ele>277</ele>
        <time>2023-07-13T16:30:42Z</time>
      </trkpt>
      <trkpt lat="44.17295" lon="4.25718">
        <ele>273</ele>
        <time>2023-07-13T16:31:07Z</time>
      </trkpt>
      <trkpt lat="44.17279" lon="4.25642">
        <ele>266</ele>
        <time>2023-07-13T16:32:22Z</time>
      </trkpt>
      <trkpt lat="44.17279" lon="4.25627">
        <ele>264</ele>
        <time>2023-07-13T16:32:37Z</time>
      </trkpt>
      <trkpt lat="44.17283" lon="4.2561">
        <ele>262</ele>
        <time>2023-07-13T16:32:54Z</time>
      </trkpt>
      <trkpt lat="44.17282" lon="4.25591">
        <ele>260</ele>
        <time>2023-07-13T16:33:12Z</time>
      </trkpt>
      <trkpt lat="44.17285" lon="4.25561">
        <ele>259</ele>
        <time>2023-07-13T16:33:41Z</time>
      </trkpt>
      <trkpt lat="44.17282" lon="4.25516">
        <ele>259</ele>
        <time>2023-07-13T16:34:24Z</time>
      </trkpt>
      <trkpt lat="44.17284" lon="4.2547">
        <ele>258</ele>
        <time>2023-07-13T16:35:08Z</time>
      </trkpt>
      <trkpt lat="44.17277" lon="4.25416">
        <ele>257</ele>
        <time>2023-07-13T16:36:01Z</time>
      </trkpt>
      <trkpt lat="44.17265" lon="4.25378">
        <ele>255</ele>
        <time>2023-07-13T16:36:41Z</time>
      </trkpt>
      <trkpt lat="44.17268" lon="4.25349">
        <ele>252</ele>
        <time>2023-07-13T16:37:09Z</time>
      </trkpt>
      <trkpt lat="44.1728" lon="4.253">
        <ele>249</ele>
        <time>2023-07-13T16:37:58Z</time>
      </trkpt>
      <trkpt lat="44.1728" lon="4.25292">
        <ele>248</ele>
        <time>2023-07-13T16:38:06Z</time>
      </trkpt>
      <trkpt lat="44.17285" lon="4.25275">
        <ele>248</ele>
        <time>2023-07-13T16:38:24Z</time>
      </trkpt>
      <trkpt lat="44.17297" lon="4.25255">
        <ele>247</ele>
        <time>2023-07-13T16:38:48Z</time>
      </trkpt>
      <trkpt lat="44.17371" lon="4.25224">
        <ele>244</ele>
        <time>2023-07-13T16:40:32Z</time>
      </trkpt>
      <trkpt lat="44.17393" lon="4.25203">
        <ele>242</ele>
        <time>2023-07-13T16:41:07Z</time>
      </trkpt>
      <trkpt lat="44.17403" lon="4.25188">
        <ele>241</ele>
        <time>2023-07-13T16:41:27Z</time>
      </trkpt>
      <trkpt lat="44.17395" lon="4.25164">
        <ele>240</ele>
        <time>2023-07-13T16:41:52Z</time>
      </trkpt>
      <trkpt lat="44.17362" lon="4.25148">
        <ele>239</ele>
        <time>2023-07-13T16:42:39Z</time>
      </trkpt>
      <trkpt lat="44.17351" lon="4.25134">
        <ele>238</ele>
        <time>2023-07-13T16:42:59Z</time>
      </trkpt>
      <trkpt lat="44.17341" lon="4.25106">
        <ele>234</ele>
        <time>2023-07-13T16:43:29Z</time>
      </trkpt>
      <trkpt lat="44.17342" lon="4.25095">
        <ele>233</ele>
        <time>2023-07-13T16:43:39Z</time>
      </trkpt>
      <trkpt lat="44.1735" lon="4.2509">
        <ele>232</ele>
        <time>2023-07-13T16:43:51Z</time>
      </trkpt>
      <trkpt lat="44.17374" lon="4.25034">
        <ele>226</ele>
        <time>2023-07-13T16:44:53Z</time>
      </trkpt>
      <trkpt lat="44.17383" lon="4.24981">
        <ele>224</ele>
        <time>2023-07-13T16:45:45Z</time>
      </trkpt>
      <trkpt lat="44.17423" lon="4.24867">
        <ele>232</ele>
        <time>2023-07-13T16:47:47Z</time>
      </trkpt>
      <trkpt lat="44.17437" lon="4.248">
        <ele>231</ele>
        <time>2023-07-13T16:48:54Z</time>
      </trkpt>
      <trkpt lat="44.17447" lon="4.24768">
        <ele>231</ele>
        <time>2023-07-13T16:49:27Z</time>
      </trkpt>
      <trkpt lat="44.17469" lon="4.24721">
        <ele>229</ele>
        <time>2023-07-13T16:50:21Z</time>
      </trkpt>
      <trkpt lat="44.17479" lon="4.24715">
        <ele>229</ele>
        <time>2023-07-13T16:50:35Z</time>
      </trkpt>
      <trkpt lat="44.17503" lon="4.24709">
        <ele>227</ele>
        <time>2023-07-13T16:51:08Z</time>
      </trkpt>
      <trkpt lat="44.17509" lon="4.24702">
        <ele>225</ele>
        <time>2023-07-13T16:51:18Z</time>
      </trkpt>
      <trkpt lat="44.17516" lon="4.2467">
        <ele>224</ele>
        <time>2023-07-13T16:51:50Z</time>
      </trkpt>
      <trkpt lat="44.17526" lon="4.24603">
        <ele>218</ele>
        <time>2023-07-13T16:52:56Z</time>
      </trkpt>
      <trkpt lat="44.17526" lon="4.24591">
        <ele>217</ele>
        <time>2023-07-13T16:53:07Z</time>
      </trkpt>
      <trkpt lat="44.17537" lon="4.24567">
        <ele>214</ele>
        <time>2023-07-13T16:53:35Z</time>
      </trkpt>
      <trkpt lat="44.17542" lon="4.24538">
        <ele>211</ele>
        <time>2023-07-13T16:54:03Z</time>
      </trkpt>
      <trkpt lat="44.17566" lon="4.24455">
        <ele>203</ele>
        <time>2023-07-13T16:55:29Z</time>
      </trkpt>
      <trkpt lat="44.17572" lon="4.24447">
        <ele>202</ele>
        <time>2023-07-13T16:55:40Z</time>
      </trkpt>
      <trkpt lat="44.17585" lon="4.24419">
        <ele>198</ele>
        <time>2023-07-13T16:56:12Z</time>
      </trkpt>
      <trkpt lat="44.17594" lon="4.24368">
        <ele>187</ele>
        <time>2023-07-13T16:57:02Z</time>
      </trkpt>
      <trkpt lat="44.17594" lon="4.24352">
        <ele>185</ele>
        <time>2023-07-13T16:57:17Z</time>
      </trkpt>
      <trkpt lat="44.17613" lon="4.24316">
        <ele>175</ele>
        <time>2023-07-13T16:58:00Z</time>
      </trkpt>
      <trkpt lat="44.17619" lon="4.24271">
        <ele>167</ele>
        <time>2023-07-13T16:58:44Z</time>
      </trkpt>
      <trkpt lat="44.17632" lon="4.2428">
        <ele>167</ele>
        <time>2023-07-13T16:59:03Z</time>
      </trkpt>
      <trkpt lat="44.17639" lon="4.24282">
        <ele>166</ele>
        <time>2023-07-13T16:59:13Z</time>
      </trkpt>
      <trkpt lat="44.17648" lon="4.24262">
        <ele>164</ele>
        <time>2023-07-13T16:59:35Z</time>
      </trkpt>
      <trkpt lat="44.17669" lon="4.24242">
        <ele>161</ele>
        <time>2023-07-13T17:00:09Z</time>
      </trkpt>
      <trkpt lat="44.17679" lon="4.2424">
        <ele>161</ele>
        <time>2023-07-13T17:00:23Z</time>
      </trkpt>
      <trkpt lat="44.17693" lon="4.24226">
        <ele>159</ele>
        <time>2023-07-13T17:00:46Z</time>
      </trkpt>
      <trkpt lat="44.17718" lon="4.24186">
        <ele>156</ele>
        <time>2023-07-13T17:01:37Z</time>
      </trkpt>
      <trkpt lat="44.17722" lon="4.24152">
        <ele>154</ele>
        <time>2023-07-13T17:02:10Z</time>
      </trkpt>
      <trkpt lat="44.17726" lon="4.24138">
        <ele>153</ele>
        <time>2023-07-13T17:02:24Z</time>
      </trkpt>
      <trkpt lat="44.17725" lon="4.24125">
        <ele>152</ele>
        <time>2023-07-13T17:02:37Z</time>
      </trkpt>
      <trkpt lat="44.17729" lon="4.24113">
        <ele>151</ele>
        <time>2023-07-13T17:02:49Z</time>
      </trkpt>
      <trkpt lat="44.17741" lon="4.24097">
        <ele>150</ele>
        <time>2023-07-13T17:03:11Z</time>
      </trkpt>
      <trkpt lat="44.17756" lon="4.2406">
        <ele>149</ele>
        <time>2023-07-13T17:03:52Z</time>
      </trkpt>
      <trkpt lat="44.17764" lon="4.24051">
        <ele>149</ele>
        <time>2023-07-13T17:04:06Z</time>
      </trkpt>
      <trkpt lat="44.17772" lon="4.24035">
        <ele>148</ele>
        <time>2023-07-13T17:04:24Z</time>
      </trkpt>
      <trkpt lat="44.17787" lon="4.24021">
        <ele>148</ele>
        <time>2023-07-13T17:04:49Z</time>
      </trkpt>
      <trkpt lat="44.17807" lon="4.2401">
        <ele>147</ele>
        <time>2023-07-13T17:05:17Z</time>
      </trkpt>
      <trkpt lat="44.17829" lon="4.24012">
        <ele>147</ele>
        <time>2023-07-13T17:05:47Z</time>
      </trkpt>
      <trkpt lat="44.17833" lon="4.24005">
        <ele>146</ele>
        <time>2023-07-13T17:05:55Z</time>
      </trkpt>
      <trkpt lat="44.17829" lon="4.23986">
        <ele>146</ele>
        <time>2023-07-13T17:06:14Z</time>
      </trkpt>
      <trkpt lat="44.17829" lon="4.23974">
        <ele>146</ele>
        <time>2023-07-13T17:06:26Z</time>
      </trkpt>
      <trkpt lat="44.17825" lon="4.23965">
        <ele>146</ele>
        <time>2023-07-13T17:06:36Z</time>
      </trkpt>
      <trkpt lat="44.17792" lon="4.23946">
        <ele>146</ele>
        <time>2023-07-13T17:07:23Z</time>
      </trkpt>
      <trkpt lat="44.17756" lon="4.2391">
        <ele>145</ele>
        <time>2023-07-13T17:08:23Z</time>
      </trkpt>
      <trkpt lat="44.17753" lon="4.23903">
        <ele>145</ele>
        <time>2023-07-13T17:08:30Z</time>
      </trkpt>
      <trkpt lat="44.17718" lon="4.23888">
        <ele>144</ele>
        <time>2023-07-13T17:09:19Z</time>
      </trkpt>
      <trkpt lat="44.17702" lon="4.23875">
        <ele>143</ele>
        <time>2023-07-13T17:09:44Z</time>
      </trkpt>
      <trkpt lat="44.17679" lon="4.23866">
        <ele>143</ele>
        <time>2023-07-13T17:10:16Z</time>
      </trkpt>
      <trkpt lat="44.17673" lon="4.23866">
        <ele>143</ele>
        <time>2023-07-13T17:10:24Z</time>
      </trkpt>
      <trkpt lat="44.17653" lon="4.23857">
        <ele>143</ele>
        <time>2023-07-13T17:10:52Z</time>
      </trkpt>
      <trkpt lat="44.17635" lon="4.23833">
        <ele>142</ele>
        <time>2023-07-13T17:11:25Z</time>
      </trkpt>
      <trkpt lat="44.17625" lon="4.23794">
        <ele>141</ele>
        <time>2023-07-13T17:12:05Z</time>
      </trkpt>
      <trkpt lat="44.17643" lon="4.23674">
        <ele>139</ele>
        <time>2023-07-13T17:14:02Z</time>
      </trkpt>
      <trkpt lat="44.17642" lon="4.23623">
        <ele>138</ele>
        <time>2023-07-13T17:14:51Z</time>
      </trkpt>
      <trkpt lat="44.17647" lon="4.23569">
        <ele>138</ele>
        <time>2023-07-13T17:15:43Z</time>
      </trkpt>
      <trkpt lat="44.17648" lon="4.2353">
        <ele>138</ele>
        <time>2023-07-13T17:16:20Z</time>
      </trkpt>
      <trkpt lat="44.17645" lon="4.23457">
        <ele>138</ele>
        <time>2023-07-13T17:17:30Z</time>
      </trkpt>
      <trkpt lat="44.17654" lon="4.23402">
        <ele>136</ele>
        <time>2023-07-13T17:18:24Z</time>
      </trkpt>
      <trkpt lat="44.17677" lon="4.23315">
        <ele>135</ele>
        <time>2023-07-13T17:19:53Z</time>
      </trkpt>
      <trkpt lat="44.17685" lon="4.23263">
        <ele>136</ele>
        <time>2023-07-13T17:20:44Z</time>
      </trkpt>
      <trkpt lat="44.17712" lon="4.23222">
        <ele>136</ele>
        <time>2023-07-13T17:21:37Z</time>
      </trkpt>
      <trkpt lat="44.17735" lon="4.23169">
        <ele>137</ele>
        <time>2023-07-13T17:22:37Z</time>
      </trkpt>
      <trkpt lat="44.17759" lon="4.23158">
        <ele>137</ele>
        <time>2023-07-13T17:23:10Z</time>
      </trkpt>
      <trkpt lat="44.17766" lon="4.23152">
        <ele>136</ele>
        <time>2023-07-13T17:23:21Z</time>
      </trkpt>
      <trkpt lat="44.17788" lon="4.23147">
        <ele>136</ele>
        <time>2023-07-13T17:23:51Z</time>
      </trkpt>
      <trkpt lat="44.17807" lon="4.23157">
        <ele>136</ele>
        <time>2023-07-13T17:24:18Z</time>
      </trkpt>
      <trkpt lat="44.17829" lon="4.23162">
        <ele>136</ele>
        <time>2023-07-13T17:24:48Z</time>
      </trkpt>
      <trkpt lat="44.17896" lon="4.23173">
        <ele>137</ele>
        <time>2023-07-13T17:26:18Z</time>
      </trkpt>
      <trkpt lat="44.1792" lon="4.23174">
        <ele>137</ele>
        <time>2023-07-13T17:26:50Z</time>
      </trkpt>
      <trkpt lat="44.17942" lon="4.23179">
        <ele>137</ele>
        <time>2023-07-13T17:27:20Z</time>
      </trkpt>
      <trkpt lat="44.17967" lon="4.23181">
        <ele>137</ele>
        <time>2023-07-13T17:27:53Z</time>
      </trkpt>
      <trkpt lat="44.18033" lon="4.23206">
        <ele>137</ele>
        <time>2023-07-13T17:29:24Z</time>
      </trkpt>
      <trkpt lat="44.18068" lon="4.23225">
        <ele>137</ele>
        <time>2023-07-13T17:30:14Z</time>
      </trkpt>
      <trkpt lat="44.18082" lon="4.23225">
        <ele>136</ele>
        <time>2023-07-13T17:30:33Z</time>
      </trkpt>
      <trkpt lat="44.18085" lon="4.23215">
        <ele>136</ele>
        <time>2023-07-13T17:30:43Z</time>
      </trkpt>
      <trkpt lat="44.18079" lon="4.23192">
        <ele>136</ele>
        <time>2023-07-13T17:31:07Z</time>
      </trkpt>
      <trkpt lat="44.18085" lon="4.23161">
        <ele>135</ele>
        <time>2023-07-13T17:31:38Z</time>
      </trkpt>
      <trkpt lat="44.18127" lon="4.23006">
        <ele>135</ele>
        <time>2023-07-13T17:34:16Z</time>
      </trkpt>
      <trkpt lat="44.1813" lon="4.23004">
        <ele>135</ele>
        <time>2023-07-13T17:34:21Z</time>
      </trkpt>
      <trkpt lat="44.18136" lon="4.23006">
        <ele>135</ele>
        <time>2023-07-13T17:34:29Z</time>
      </trkpt>
      <trkpt lat="44.18152" lon="4.23">
        <ele>135</ele>
        <time>2023-07-13T17:34:51Z</time>
      </trkpt>
      <trkpt lat="44.18163" lon="4.23004">
        <ele>135</ele>
        <time>2023-07-13T17:35:06Z</time>
      </trkpt>
      <trkpt lat="44.18171" lon="4.23001">
        <ele>135</ele>
        <time>2023-07-13T17:35:17Z</time>
      </trkpt>
      <trkpt lat="44.18194" lon="4.22974">
        <ele>134</ele>
        <time>2023-07-13T17:35:57Z</time>
      </trkpt>
      <trkpt lat="44.1822" lon="4.22915">
        <ele>134</ele>
        <time>2023-07-13T17:37:04Z</time>
      </trkpt>
      <trkpt lat="44.18233" lon="4.22902">
        <ele>134</ele>
        <time>2023-07-13T17:37:25Z</time>
      </trkpt>
      <trkpt lat="44.18286" lon="4.22884">
        <ele>133</ele>
        <time>2023-07-13T17:38:38Z</time>
      </trkpt>
      <trkpt lat="44.18314" lon="4.22886">
        <ele>133</ele>
        <time>2023-07-13T17:39:15Z</time>
      </trkpt>
      <trkpt lat="44.1833" lon="4.22892">
        <ele>133</ele>
        <time>2023-07-13T17:39:37Z</time>
      </trkpt>
      <trkpt lat="44.18343" lon="4.22893">
        <ele>133</ele>
        <time>2023-07-13T17:39:55Z</time>
      </trkpt>
      <trkpt lat="44.18367" lon="4.22882">
        <ele>133</ele>
        <time>2023-07-13T17:40:28Z</time>
      </trkpt>
      <trkpt lat="44.18386" lon="4.22887">
        <ele>133</ele>
        <time>2023-07-13T17:40:54Z</time>
      </trkpt>
      <trkpt lat="44.18401" lon="4.22911">
        <ele>132</ele>
        <time>2023-07-13T17:41:25Z</time>
      </trkpt>
      <trkpt lat="44.18412" lon="4.22972">
        <ele>132</ele>
        <time>2023-07-13T17:42:25Z</time>
      </trkpt>
      <trkpt lat="44.18422" lon="4.2299">
        <ele>132</ele>
        <time>2023-07-13T17:42:47Z</time>
      </trkpt>
      <trkpt lat="44.18453" lon="4.23025">
        <ele>132</ele>
        <time>2023-07-13T17:43:40Z</time>
      </trkpt>
      <trkpt lat="44.18493" lon="4.23056">
        <ele>132</ele>
        <time>2023-07-13T17:44:41Z</time>
      </trkpt>
      <trkpt lat="44.18508" lon="4.23084">
        <ele>131</ele>
        <time>2023-07-13T17:45:14Z</time>
      </trkpt>
      <trkpt lat="44.18518" lon="4.23097">
        <ele>132</ele>
        <time>2023-07-13T17:45:33Z</time>
      </trkpt>
      <trkpt lat="44.18529" lon="4.23105">
        <ele>132</ele>
        <time>2023-07-13T17:45:49Z</time>
      </trkpt>
      <trkpt lat="44.18529" lon="4.23111">
        <ele>132</ele>
        <time>2023-07-13T17:45:55Z</time>
      </trkpt>
      <trkpt lat="44.18506" lon="4.23177">
        <ele>133</ele>
        <time>2023-07-13T17:47:05Z</time>
      </trkpt>
      <trkpt lat="44.18502" lon="4.23193">
        <ele>133</ele>
        <time>2023-07-13T17:47:21Z</time>
      </trkpt>
      <trkpt lat="44.18502" lon="4.23206">
        <ele>133</ele>
        <time>2023-07-13T17:47:34Z</time>
      </trkpt>
      <trkpt lat="44.18475" lon="4.23292">
        <ele>136</ele>
        <time>2023-07-13T17:49:04Z</time>
      </trkpt>
      <trkpt lat="44.18463" lon="4.23341">
        <ele>137</ele>
        <time>2023-07-13T17:49:53Z</time>
      </trkpt>
    </trkseg>
  </trk>
</gpx>